sensor_id;sensor_type;location;lat;lon;timestamp;pressure;altitude;pressure_sealevel;temperature
76898;BMP180;65856;52.178;21.176;2023-06-22T00:00:58;100623.60;;;22.10
76898;BMP180;65856;52.178;21.176;2023-06-22T00:03:25;100626.40;;;22.10
76898;BMP180;65856;52.178;21.176;2023-06-22T00:05:51;100631.80;;;22.00
76898;BMP180;65856;52.178;21.176;2023-06-22T00:08:18;100636.60;;;22.00
76898;BMP180;65856;52.178;21.176;2023-06-22T00:10:45;100639.40;;;22.00
76898;BMP180;65856;52.178;21.176;2023-06-22T00:13:12;100641.40;;;22.00
76898;BMP180;65856;52.178;21.176;2023-06-22T00:15:40;100638.60;;;21.90
76898;BMP180;65856;52.178;21.176;2023-06-22T00:18:08;100640.40;;;21.90
76898;BMP180;65856;52.178;21.176;2023-06-22T00:20:34;100638.60;;;21.80
76898;BMP180;65856;52.178;21.176;2023-06-22T00:23:06;100639.60;;;21.80
76898;BMP180;65856;52.178;21.176;2023-06-22T00:25:36;100641.60;;;21.70
76898;BMP180;65856;52.178;21.176;2023-06-22T00:28:03;100641.60;;;21.70
76898;BMP180;65856;52.178;21.176;2023-06-22T00:30:30;100643.60;;;21.70
76898;BMP180;65856;52.178;21.176;2023-06-22T00:32:57;100641.20;;;21.70
76898;BMP180;65856;52.178;21.176;2023-06-22T00:35:24;100638.20;;;21.70
76898;BMP180;65856;52.178;21.176;2023-06-22T00:37:58;100640.20;;;21.64
76898;BMP180;65856;52.178;21.176;2023-06-22T00:40:29;100636.20;;;21.60
76898;BMP180;65856;52.178;21.176;2023-06-22T00:42:56;100640.80;;;21.60
76898;BMP180;65856;52.178;21.176;2023-06-22T00:45:23;100635.60;;;21.54
76898;BMP180;65856;52.178;21.176;2023-06-22T00:47:55;100632.40;;;21.50
76898;BMP180;65856;52.178;21.176;2023-06-22T00:50:25;100627.80;;;21.50
76898;BMP180;65856;52.178;21.176;2023-06-22T00:52:55;100623.60;;;21.40
76898;BMP180;65856;52.178;21.176;2023-06-22T00:55:23;100624.80;;;21.40
76898;BMP180;65856;52.178;21.176;2023-06-22T00:57:49;100623.40;;;21.40
76898;BMP180;65856;52.178;21.176;2023-06-22T01:00:16;100626.80;;;21.40
76898;BMP180;65856;52.178;21.176;2023-06-22T01:02:46;100631.40;;;21.30
76898;BMP180;65856;52.178;21.176;2023-06-22T01:05:18;100629.00;;;21.30
76898;BMP180;65856;52.178;21.176;2023-06-22T01:08:08;100620.00;;;21.30
76898;BMP180;65856;52.178;21.176;2023-06-22T01:10:55;100613.60;;;21.30
76898;BMP180;65856;52.178;21.176;2023-06-22T01:16:30;100598.40;;;21.14
76898;BMP180;65856;52.178;21.176;2023-06-22T01:19:03;100601.20;;;21.10
76898;BMP180;65856;52.178;21.176;2023-06-22T01:21:37;100600.40;;;21.10
76898;BMP180;65856;52.178;21.176;2023-06-22T01:24:18;100594.80;;;21.10
76898;BMP180;65856;52.178;21.176;2023-06-22T01:27:23;100594.80;;;21.00
76898;BMP180;65856;52.178;21.176;2023-06-22T01:29:59;100593.80;;;21.00
76898;BMP180;65856;52.178;21.176;2023-06-22T01:32:30;100588.80;;;20.90
76898;BMP180;65856;52.178;21.176;2023-06-22T01:35:01;100586.80;;;20.92
76898;BMP180;65856;52.178;21.176;2023-06-22T01:37:29;100590.00;;;20.90
76898;BMP180;65856;52.178;21.176;2023-06-22T01:39:58;100592.00;;;20.90
76898;BMP180;65856;52.178;21.176;2023-06-22T01:42:25;100581.40;;;20.90
76898;BMP180;65856;52.178;21.176;2023-06-22T01:44:54;100578.80;;;20.90
76898;BMP180;65856;52.178;21.176;2023-06-22T01:47:24;100579.20;;;20.90
76898;BMP180;65856;52.178;21.176;2023-06-22T01:49:51;100571.60;;;20.88
76898;BMP180;65856;52.178;21.176;2023-06-22T01:52:18;100568.80;;;20.80
76898;BMP180;65856;52.178;21.176;2023-06-22T01:54:44;100569.80;;;20.80
76898;BMP180;65856;52.178;21.176;2023-06-22T01:57:10;100569.80;;;20.80
76898;BMP180;65856;52.178;21.176;2023-06-22T02:00:01;100576.40;;;20.70
76898;BMP180;65856;52.178;21.176;2023-06-22T02:02:49;100576.60;;;20.76
76898;BMP180;65856;52.178;21.176;2023-06-22T02:05:19;100585.40;;;20.70
76898;BMP180;65856;52.178;21.176;2023-06-22T02:08:02;100588.40;;;20.70
76898;BMP180;65856;52.178;21.176;2023-06-22T02:10:38;100598.60;;;20.70
76898;BMP180;65856;52.178;21.176;2023-06-22T02:13:08;100594.20;;;20.60
76898;BMP180;65856;52.178;21.176;2023-06-22T02:15:36;100600.20;;;20.60
76898;BMP180;65856;52.178;21.176;2023-06-22T02:18:02;100599.40;;;20.60
76898;BMP180;65856;52.178;21.176;2023-06-22T02:20:28;100603.60;;;20.60
76898;BMP180;65856;52.178;21.176;2023-06-22T02:22:54;100610.40;;;20.60
76898;BMP180;65856;52.178;21.176;2023-06-22T02:25:19;100621.80;;;20.60
76898;BMP180;65856;52.178;21.176;2023-06-22T02:27:46;100633.20;;;20.50
76898;BMP180;65856;52.178;21.176;2023-06-22T02:30:12;100640.80;;;20.50
76898;BMP180;65856;52.178;21.176;2023-06-22T02:32:40;100639.00;;;20.46
76898;BMP180;65856;52.178;21.176;2023-06-22T02:35:09;100641.00;;;20.42
76898;BMP180;65856;52.178;21.176;2023-06-22T02:37:38;100643.80;;;20.40
76898;BMP180;65856;52.178;21.176;2023-06-22T02:40:08;100645.60;;;20.42
76898;BMP180;65856;52.178;21.176;2023-06-22T02:42:39;100646.00;;;20.40
76898;BMP180;65856;52.178;21.176;2023-06-22T02:45:06;100646.60;;;20.42
76898;BMP180;65856;52.178;21.176;2023-06-22T02:47:31;100650.00;;;20.50
76898;BMP180;65856;52.178;21.176;2023-06-22T02:49:57;100652.00;;;20.50
76898;BMP180;65856;52.178;21.176;2023-06-22T02:52:22;100653.80;;;20.50
76898;BMP180;65856;52.178;21.176;2023-06-22T02:54:48;100659.40;;;20.60
76898;BMP180;65856;52.178;21.176;2023-06-22T02:57:13;100663.20;;;20.60
76898;BMP180;65856;52.178;21.176;2023-06-22T02:59:40;100666.40;;;20.64
76898;BMP180;65856;52.178;21.176;2023-06-22T03:02:08;100669.80;;;20.70
76898;BMP180;65856;52.178;21.176;2023-06-22T03:04:35;100675.20;;;20.60
76898;BMP180;65856;52.178;21.176;2023-06-22T03:07:01;100672.00;;;20.60
76898;BMP180;65856;52.178;21.176;2023-06-22T03:09:30;100668.60;;;20.70
76898;BMP180;65856;52.178;21.176;2023-06-22T03:11:55;100672.60;;;20.70
76898;BMP180;65856;52.178;21.176;2023-06-22T03:14:21;100673.00;;;20.70
76898;BMP180;65856;52.178;21.176;2023-06-22T03:16:47;100679.00;;;20.76
76898;BMP180;65856;52.178;21.176;2023-06-22T03:19:13;100685.00;;;20.80
76898;BMP180;65856;52.178;21.176;2023-06-22T03:21:39;100684.40;;;20.80
76898;BMP180;65856;52.178;21.176;2023-06-22T03:24:07;100691.80;;;20.80
76898;BMP180;65856;52.178;21.176;2023-06-22T03:26:34;100693.20;;;20.80
76898;BMP180;65856;52.178;21.176;2023-06-22T03:29:00;100691.40;;;20.88
76898;BMP180;65856;52.178;21.176;2023-06-22T03:31:26;100696.40;;;20.90
76898;BMP180;65856;52.178;21.176;2023-06-22T03:33:51;100694.40;;;20.90
76898;BMP180;65856;52.178;21.176;2023-06-22T03:36:18;100698.80;;;20.90
76898;BMP180;65856;52.178;21.176;2023-06-22T03:38:49;100700.80;;;20.94
76898;BMP180;65856;52.178;21.176;2023-06-22T03:41:15;100701.80;;;21.00
76898;BMP180;65856;52.178;21.176;2023-06-22T03:43:41;100699.80;;;21.00
76898;BMP180;65856;52.178;21.176;2023-06-22T03:46:06;100697.60;;;21.10
76898;BMP180;65856;52.178;21.176;2023-06-22T03:48:32;100696.40;;;21.10
76898;BMP180;65856;52.178;21.176;2023-06-22T03:51:02;100698.40;;;21.10
76898;BMP180;65856;52.178;21.176;2023-06-22T03:53:29;100699.20;;;21.20
76898;BMP180;65856;52.178;21.176;2023-06-22T03:55:55;100705.00;;;21.22
76898;BMP180;65856;52.178;21.176;2023-06-22T03:58:21;100711.20;;;21.30
76898;BMP180;65856;52.178;21.176;2023-06-22T04:00:52;100716.40;;;21.30
76898;BMP180;65856;52.178;21.176;2023-06-22T04:03:19;100722.20;;;21.40
76898;BMP180;65856;52.178;21.176;2023-06-22T04:05:45;100722.80;;;21.40
76898;BMP180;65856;52.178;21.176;2023-06-22T04:08:13;100732.40;;;21.46
76898;BMP180;65856;52.178;21.176;2023-06-22T04:10:39;100732.20;;;21.50
76898;BMP180;65856;52.178;21.176;2023-06-22T04:13:04;100731.60;;;21.50
76898;BMP180;65856;52.178;21.176;2023-06-22T04:15:30;100726.40;;;21.60
76898;BMP180;65856;52.178;21.176;2023-06-22T04:17:56;100728.20;;;21.60
76898;BMP180;65856;52.178;21.176;2023-06-22T04:20:23;100727.00;;;21.60
76898;BMP180;65856;52.178;21.176;2023-06-22T04:22:54;100725.00;;;21.70
76898;BMP180;65856;52.178;21.176;2023-06-22T04:25:22;100726.80;;;21.70
76898;BMP180;65856;52.178;21.176;2023-06-22T04:27:48;100728.20;;;21.80
76898;BMP180;65856;52.178;21.176;2023-06-22T04:30:14;100733.20;;;21.80
76898;BMP180;65856;52.178;21.176;2023-06-22T04:32:43;100731.80;;;21.90
76898;BMP180;65856;52.178;21.176;2023-06-22T04:35:10;100730.40;;;21.90
76898;BMP180;65856;52.178;21.176;2023-06-22T04:37:37;100742.20;;;22.00
76898;BMP180;65856;52.178;21.176;2023-06-22T04:40:05;100734.40;;;22.00
76898;BMP180;65856;52.178;21.176;2023-06-22T04:42:34;100732.00;;;22.10
76898;BMP180;65856;52.178;21.176;2023-06-22T04:45:02;100734.60;;;22.20
76898;BMP180;65856;52.178;21.176;2023-06-22T04:47:28;100731.00;;;22.28
76898;BMP180;65856;52.178;21.176;2023-06-22T04:49:53;100731.00;;;22.36
76898;BMP180;65856;52.178;21.176;2023-06-22T04:52:19;100727.20;;;22.40
76898;BMP180;65856;52.178;21.176;2023-06-22T04:54:45;100726.80;;;22.50
76898;BMP180;65856;52.178;21.176;2023-06-22T04:57:14;100724.80;;;22.58
76898;BMP180;65856;52.178;21.176;2023-06-22T04:59:40;100729.20;;;22.60
76898;BMP180;65856;52.178;21.176;2023-06-22T05:02:07;100733.60;;;22.70
76898;BMP180;65856;52.178;21.176;2023-06-22T05:04:34;100733.40;;;22.80
76898;BMP180;65856;52.178;21.176;2023-06-22T05:07:06;100730.40;;;22.86
76898;BMP180;65856;52.178;21.176;2023-06-22T05:09:32;100733.40;;;22.90
76898;BMP180;65856;52.178;21.176;2023-06-22T05:11:59;100736.40;;;23.00
76898;BMP180;65856;52.178;21.176;2023-06-22T05:14:27;100736.40;;;23.00
76898;BMP180;65856;52.178;21.176;2023-06-22T05:16:53;100733.40;;;23.00
76898;BMP180;65856;52.178;21.176;2023-06-22T05:19:18;100733.20;;;23.00
76898;BMP180;65856;52.178;21.176;2023-06-22T05:21:44;100733.20;;;23.10
76898;BMP180;65856;52.178;21.176;2023-06-22T05:24:09;100730.00;;;23.10
76898;BMP180;65856;52.178;21.176;2023-06-22T05:26:35;100734.60;;;23.10
76898;BMP180;65856;52.178;21.176;2023-06-22T05:29:02;100730.60;;;23.10
76898;BMP180;65856;52.178;21.176;2023-06-22T05:31:29;100735.00;;;23.10
76898;BMP180;65856;52.178;21.176;2023-06-22T05:33:55;100739.80;;;23.10
76898;BMP180;65856;52.178;21.176;2023-06-22T05:36:22;100749.40;;;23.10
76898;BMP180;65856;52.178;21.176;2023-06-22T05:38:52;100759.80;;;23.00
76898;BMP180;65856;52.178;21.176;2023-06-22T05:41:18;100761.80;;;22.96
76898;BMP180;65856;52.178;21.176;2023-06-22T05:43:43;100761.80;;;22.94
76898;BMP180;65856;52.178;21.176;2023-06-22T05:46:09;100761.80;;;23.00
76898;BMP180;65856;52.178;21.176;2023-06-22T05:48:34;100761.40;;;23.00
76898;BMP180;65856;52.178;21.176;2023-06-22T05:51:00;100759.80;;;23.00
76898;BMP180;65856;52.178;21.176;2023-06-22T05:53:25;100761.00;;;23.00
76898;BMP180;65856;52.178;21.176;2023-06-22T05:55:51;100764.60;;;23.02
76898;BMP180;65856;52.178;21.176;2023-06-22T05:58:17;100766.20;;;23.06
76898;BMP180;65856;52.178;21.176;2023-06-22T06:00:42;100772.20;;;23.00
76898;BMP180;65856;52.178;21.176;2023-06-22T06:03:09;100775.00;;;23.00
76898;BMP180;65856;52.178;21.176;2023-06-22T06:05:37;100776.40;;;22.90
76898;BMP180;65856;52.178;21.176;2023-06-22T06:08:05;100776.40;;;22.90
76898;BMP180;65856;52.178;21.176;2023-06-22T06:10:33;100781.40;;;22.90
76898;BMP180;65856;52.178;21.176;2023-06-22T06:13:00;100780.40;;;23.00
76898;BMP180;65856;52.178;21.176;2023-06-22T06:15:28;100777.80;;;23.00
76898;BMP180;65856;52.178;21.176;2023-06-22T06:17:54;100778.60;;;23.00
76898;BMP180;65856;52.178;21.176;2023-06-22T06:20:24;100775.60;;;23.00
76898;BMP180;65856;52.178;21.176;2023-06-22T06:22:51;100776.40;;;23.04
76898;BMP180;65856;52.178;21.176;2023-06-22T06:25:17;100788.80;;;23.10
76898;BMP180;65856;52.178;21.176;2023-06-22T06:27:46;100798.00;;;23.10
76898;BMP180;65856;52.178;21.176;2023-06-22T06:30:15;100799.60;;;23.00
76898;BMP180;65856;52.178;21.176;2023-06-22T06:32:42;100804.00;;;23.00
76898;BMP180;65856;52.178;21.176;2023-06-22T06:35:11;100802.00;;;22.94
76898;BMP180;65856;52.178;21.176;2023-06-22T06:37:43;100805.80;;;23.00
76898;BMP180;65856;52.178;21.176;2023-06-22T06:40:11;100804.80;;;23.00
76898;BMP180;65856;52.178;21.176;2023-06-22T06:42:44;100798.80;;;23.00
76898;BMP180;65856;52.178;21.176;2023-06-22T06:47:37;100798.20;;;23.10
76898;BMP180;65856;52.178;21.176;2023-06-22T06:50:05;100796.80;;;23.10
76898;BMP180;65856;52.178;21.176;2023-06-22T06:52:31;100799.00;;;23.10
76898;BMP180;65856;52.178;21.176;2023-06-22T06:54:57;100801.20;;;23.10
76898;BMP180;65856;52.178;21.176;2023-06-22T06:57:23;100804.00;;;23.10
76898;BMP180;65856;52.178;21.176;2023-06-22T06:59:49;100796.40;;;23.16
76898;BMP180;65856;52.178;21.176;2023-06-22T07:02:15;100794.40;;;23.20
76898;BMP180;65856;52.178;21.176;2023-06-22T07:04:41;100784.00;;;23.20
76898;BMP180;65856;52.178;21.176;2023-06-22T07:07:07;100783.20;;;23.30
76898;BMP180;65856;52.178;21.176;2023-06-22T07:09:32;100787.40;;;23.30
76898;BMP180;65856;52.178;21.176;2023-06-22T07:11:58;100782.80;;;23.38
76898;BMP180;65856;52.178;21.176;2023-06-22T07:14:23;100786.00;;;23.46
76898;BMP180;65856;52.178;21.176;2023-06-22T07:16:49;100791.20;;;23.50
76898;BMP180;65856;52.178;21.176;2023-06-22T07:19:14;100790.60;;;23.60
76898;BMP180;65856;52.178;21.176;2023-06-22T07:21:40;100788.60;;;23.60
76898;BMP180;65856;52.178;21.176;2023-06-22T07:24:06;100790.00;;;23.70
76898;BMP180;65856;52.178;21.176;2023-06-22T07:26:33;100795.80;;;23.80
76898;BMP180;65856;52.178;21.176;2023-06-22T07:28:59;100794.00;;;23.88
76898;BMP180;65856;52.178;21.176;2023-06-22T07:31:25;100797.80;;;24.10
76898;BMP180;65856;52.178;21.176;2023-06-22T07:33:51;100797.40;;;24.30
76898;BMP180;65856;52.178;21.176;2023-06-22T07:36:17;100800.40;;;24.44
76898;BMP180;65856;52.178;21.176;2023-06-22T07:38:43;100802.80;;;24.50
76898;BMP180;65856;52.178;21.176;2023-06-22T07:41:09;100811.60;;;24.50
76898;BMP180;65856;52.178;21.176;2023-06-22T07:43:34;100810.20;;;24.58
76898;BMP180;65856;52.178;21.176;2023-06-22T07:46:05;100800.60;;;24.70
76898;BMP180;65856;52.178;21.176;2023-06-22T07:48:31;100807.40;;;25.02
76898;BMP180;65856;52.178;21.176;2023-06-22T07:50:57;100807.60;;;25.26
76898;BMP180;65856;52.178;21.176;2023-06-22T07:53:23;100811.60;;;25.40
76898;BMP180;65856;52.178;21.176;2023-06-22T07:55:50;100805.00;;;25.46
76898;BMP180;65856;52.178;21.176;2023-06-22T07:58:16;100808.60;;;25.60
76898;BMP180;65856;52.178;21.176;2023-06-22T08:00:44;100810.20;;;25.76
76898;BMP180;65856;52.178;21.176;2023-06-22T08:03:09;100808.00;;;25.90
76898;BMP180;65856;52.178;21.176;2023-06-22T08:05:35;100807.20;;;26.00
76898;BMP180;65856;52.178;21.176;2023-06-22T08:08:00;100813.80;;;26.28
76898;BMP180;65856;52.178;21.176;2023-06-22T08:10:26;100814.60;;;26.50
76898;BMP180;65856;52.178;21.176;2023-06-22T08:12:51;100821.20;;;26.50
76898;BMP180;65856;52.178;21.176;2023-06-22T08:15:18;100819.20;;;26.60
76898;BMP180;65856;52.178;21.176;2023-06-22T08:17:44;100813.60;;;26.80
76898;BMP180;65856;52.178;21.176;2023-06-22T08:20:11;100815.40;;;26.92
76898;BMP180;65856;52.178;21.176;2023-06-22T08:22:38;100817.60;;;27.10
76898;BMP180;65856;52.178;21.176;2023-06-22T08:25:04;100808.40;;;27.20
76898;BMP180;65856;52.178;21.176;2023-06-22T08:27:31;100803.60;;;27.50
76898;BMP180;65856;52.178;21.176;2023-06-22T08:30:01;100802.00;;;27.70
76898;BMP180;65856;52.178;21.176;2023-06-22T08:32:28;100807.20;;;27.90
76898;BMP180;65856;52.178;21.176;2023-06-22T08:34:55;100801.20;;;28.10
76898;BMP180;65856;52.178;21.176;2023-06-22T08:37:22;100806.80;;;28.28
76898;BMP180;65856;52.178;21.176;2023-06-22T08:39:56;100804.60;;;28.30
76898;BMP180;65856;52.178;21.176;2023-06-22T08:42:23;100801.20;;;28.44
76898;BMP180;65856;52.178;21.176;2023-06-22T08:44:50;100799.20;;;28.70
76898;BMP180;65856;52.178;21.176;2023-06-22T08:47:15;100800.40;;;28.80
76898;BMP180;65856;52.178;21.176;2023-06-22T08:49:41;100803.60;;;28.90
76898;BMP180;65856;52.178;21.176;2023-06-22T08:52:07;100811.00;;;29.00
76898;BMP180;65856;52.178;21.176;2023-06-22T08:54:33;100807.80;;;29.10
76898;BMP180;65856;52.178;21.176;2023-06-22T08:57:03;100802.80;;;29.30
76898;BMP180;65856;52.178;21.176;2023-06-22T08:59:28;100804.60;;;29.48
76898;BMP180;65856;52.178;21.176;2023-06-22T09:01:54;100806.40;;;29.60
76898;BMP180;65856;52.178;21.176;2023-06-22T09:04:19;100812.00;;;29.76
76898;BMP180;65856;52.178;21.176;2023-06-22T09:06:48;100813.80;;;29.94
76898;BMP180;65856;52.178;21.176;2023-06-22T09:09:16;100812.20;;;30.18
76898;BMP180;65856;52.178;21.176;2023-06-22T09:11:42;100815.60;;;30.36
76898;BMP180;65856;52.178;21.176;2023-06-22T09:14:08;100818.40;;;30.42
76898;BMP180;65856;52.178;21.176;2023-06-22T09:16:35;100821.60;;;30.50
76898;BMP180;65856;52.178;21.176;2023-06-22T09:19:00;100823.60;;;30.50
76898;BMP180;65856;52.178;21.176;2023-06-22T09:21:26;100824.60;;;30.60
76898;BMP180;65856;52.178;21.176;2023-06-22T09:23:51;100821.40;;;30.70
76898;BMP180;65856;52.178;21.176;2023-06-22T09:26:18;100819.40;;;30.78
76898;BMP180;65856;52.178;21.176;2023-06-22T09:28:44;100814.60;;;30.70
76898;BMP180;65856;52.178;21.176;2023-06-22T09:31:10;100813.00;;;30.76
76898;BMP180;65856;52.178;21.176;2023-06-22T09:33:36;100808.40;;;30.90
76898;BMP180;65856;52.178;21.176;2023-06-22T09:36:05;100806.40;;;30.90
76898;BMP180;65856;52.178;21.176;2023-06-22T09:38:37;100808.80;;;30.90
76898;BMP180;65856;52.178;21.176;2023-06-22T09:41:04;100802.60;;;30.90
76898;BMP180;65856;52.178;21.176;2023-06-22T09:43:32;100802.20;;;31.00
76898;BMP180;65856;52.178;21.176;2023-06-22T09:46:00;100805.00;;;31.10
76898;BMP180;65856;52.178;21.176;2023-06-22T09:48:26;100807.60;;;31.20
76898;BMP180;65856;52.178;21.176;2023-06-22T09:50:52;100800.00;;;31.22
76898;BMP180;65856;52.178;21.176;2023-06-22T09:53:17;100796.20;;;31.24
76898;BMP180;65856;52.178;21.176;2023-06-22T09:55:43;100796.80;;;31.10
76898;BMP180;65856;52.178;21.176;2023-06-22T09:58:08;100808.20;;;31.00
76898;BMP180;65856;52.178;21.176;2023-06-22T10:00:34;100802.00;;;31.00
76898;BMP180;65856;52.178;21.176;2023-06-22T10:03:00;100804.80;;;31.10
76898;BMP180;65856;52.178;21.176;2023-06-22T10:05:25;100801.00;;;31.18
76898;BMP180;65856;52.178;21.176;2023-06-22T10:07:51;100809.00;;;31.26
76898;BMP180;65856;52.178;21.176;2023-06-22T10:10:16;100806.00;;;31.40
76898;BMP180;65856;52.178;21.176;2023-06-22T10:12:46;100807.00;;;31.40
76898;BMP180;65856;52.178;21.176;2023-06-22T10:15:14;100809.20;;;31.54
76898;BMP180;65856;52.178;21.176;2023-06-22T10:17:40;100808.00;;;31.70
76898;BMP180;65856;52.178;21.176;2023-06-22T10:20:07;100806.00;;;31.70
76898;BMP180;65856;52.178;21.176;2023-06-22T10:22:44;100809.80;;;31.70
76898;BMP180;65856;52.178;21.176;2023-06-22T10:25:12;100811.80;;;31.78
76898;BMP180;65856;52.178;21.176;2023-06-22T10:27:39;100808.40;;;31.80
76898;BMP180;65856;52.178;21.176;2023-06-22T10:30:12;100807.40;;;31.80
76898;BMP180;65856;52.178;21.176;2023-06-22T10:32:38;100805.60;;;31.78
76898;BMP180;65856;52.178;21.176;2023-06-22T10:35:05;100804.40;;;31.80
76898;BMP180;65856;52.178;21.176;2023-06-22T10:37:31;100804.80;;;31.88
76898;BMP180;65856;52.178;21.176;2023-06-22T10:39:57;100799.40;;;31.90
76898;BMP180;65856;52.178;21.176;2023-06-22T10:42:22;100797.80;;;32.00
76898;BMP180;65856;52.178;21.176;2023-06-22T10:44:48;100792.40;;;32.00
76898;BMP180;65856;52.178;21.176;2023-06-22T10:47:14;100794.40;;;32.00
76898;BMP180;65856;52.178;21.176;2023-06-22T10:49:39;100793.60;;;32.00
76898;BMP180;65856;52.178;21.176;2023-06-22T10:52:09;100793.80;;;32.00
76898;BMP180;65856;52.178;21.176;2023-06-22T10:54:35;100790.20;;;31.90
76898;BMP180;65856;52.178;21.176;2023-06-22T10:57:02;100789.80;;;31.70
76898;BMP180;65856;52.178;21.176;2023-06-22T10:59:28;100794.80;;;31.60
76898;BMP180;65856;52.178;21.176;2023-06-22T11:01:58;100786.20;;;31.60
76898;BMP180;65856;52.178;21.176;2023-06-22T11:04:24;100782.80;;;31.50
76898;BMP180;65856;52.178;21.176;2023-06-22T11:06:50;100779.00;;;31.40
76898;BMP180;65856;52.178;21.176;2023-06-22T11:09:17;100771.20;;;31.30
76898;BMP180;65856;52.178;21.176;2023-06-22T11:11:47;100772.60;;;31.20
76898;BMP180;65856;52.178;21.176;2023-06-22T11:14:13;100778.00;;;31.10
76898;BMP180;65856;52.178;21.176;2023-06-22T11:16:39;100779.40;;;31.00
76898;BMP180;65856;52.178;21.176;2023-06-22T11:19:05;100780.60;;;31.00
76898;BMP180;65856;52.178;21.176;2023-06-22T11:21:31;100780.20;;;30.94
76898;BMP180;65856;52.178;21.176;2023-06-22T11:23:58;100781.40;;;30.90
76898;BMP180;65856;52.178;21.176;2023-06-22T11:26:25;100782.80;;;30.90
76898;BMP180;65856;52.178;21.176;2023-06-22T11:28:54;100783.40;;;30.90
76898;BMP180;65856;52.178;21.176;2023-06-22T11:31:19;100777.60;;;30.90
76898;BMP180;65856;52.178;21.176;2023-06-22T11:33:45;100773.80;;;30.80
76898;BMP180;65856;52.178;21.176;2023-06-22T11:36:12;100771.00;;;30.70
76898;BMP180;65856;52.178;21.176;2023-06-22T11:38:38;100769.20;;;30.70
76898;BMP180;65856;52.178;21.176;2023-06-22T11:41:06;100762.60;;;30.70
76898;BMP180;65856;52.178;21.176;2023-06-22T11:43:32;100767.00;;;30.60
76898;BMP180;65856;52.178;21.176;2023-06-22T11:45:57;100768.20;;;30.66
76898;BMP180;65856;52.178;21.176;2023-06-22T11:48:24;100764.80;;;30.60
76898;BMP180;65856;52.178;21.176;2023-06-22T11:50:50;100764.80;;;30.60
76898;BMP180;65856;52.178;21.176;2023-06-22T11:53:16;100768.20;;;30.50
76898;BMP180;65856;52.178;21.176;2023-06-22T11:55:43;100766.20;;;30.50
76898;BMP180;65856;52.178;21.176;2023-06-22T11:58:09;100762.00;;;30.50
76898;BMP180;65856;52.178;21.176;2023-06-22T12:00:35;100765.20;;;30.50
76898;BMP180;65856;52.178;21.176;2023-06-22T12:03:00;100769.60;;;30.50
76898;BMP180;65856;52.178;21.176;2023-06-22T12:05:26;100764.60;;;30.44
76898;BMP180;65856;52.178;21.176;2023-06-22T12:07:55;100761.20;;;30.50
76898;BMP180;65856;52.178;21.176;2023-06-22T12:10:22;100763.00;;;30.50
76898;BMP180;65856;52.178;21.176;2023-06-22T12:12:48;100767.20;;;30.50
76898;BMP180;65856;52.178;21.176;2023-06-22T12:15:14;100766.40;;;30.50
76898;BMP180;65856;52.178;21.176;2023-06-22T12:17:40;100764.40;;;30.40
76898;BMP180;65856;52.178;21.176;2023-06-22T12:20:06;100762.40;;;30.38
76898;BMP180;65856;52.178;21.176;2023-06-22T12:22:34;100768.40;;;30.30
76898;BMP180;65856;52.178;21.176;2023-06-22T12:25:00;100760.20;;;30.24
76898;BMP180;65856;52.178;21.176;2023-06-22T12:27:27;100767.00;;;30.30
76898;BMP180;65856;52.178;21.176;2023-06-22T12:29:52;100760.60;;;30.30
76898;BMP180;65856;52.178;21.176;2023-06-22T12:32:18;100763.00;;;30.30
76898;BMP180;65856;52.178;21.176;2023-06-22T12:34:44;100758.20;;;30.28
76898;BMP180;65856;52.178;21.176;2023-06-22T12:37:10;100757.80;;;30.30
76898;BMP180;65856;52.178;21.176;2023-06-22T12:39:36;100761.20;;;30.30
76898;BMP180;65856;52.178;21.176;2023-06-22T12:42:02;100755.80;;;30.30
76898;BMP180;65856;52.178;21.176;2023-06-22T12:44:28;100750.20;;;30.28
76898;BMP180;65856;52.178;21.176;2023-06-22T12:46:53;100745.80;;;30.20
76898;BMP180;65856;52.178;21.176;2023-06-22T12:49:19;100752.60;;;30.20
76898;BMP180;65856;52.178;21.176;2023-06-22T12:51:45;100751.20;;;30.20
76898;BMP180;65856;52.178;21.176;2023-06-22T12:54:11;100754.60;;;30.20
76898;BMP180;65856;52.178;21.176;2023-06-22T12:56:38;100751.20;;;30.18
76898;BMP180;65856;52.178;21.176;2023-06-22T12:59:06;100755.40;;;30.10
76898;BMP180;65856;52.178;21.176;2023-06-22T13:01:32;100753.80;;;30.10
76898;BMP180;65856;52.178;21.176;2023-06-22T13:03:58;100756.40;;;30.06
76898;BMP180;65856;52.178;21.176;2023-06-22T13:06:25;100754.40;;;30.10
76898;BMP180;65856;52.178;21.176;2023-06-22T13:08:51;100757.00;;;30.10
76898;BMP180;65856;52.178;21.176;2023-06-22T13:11:16;100756.00;;;30.10
76898;BMP180;65856;52.178;21.176;2023-06-22T13:13:44;100756.00;;;30.08
76898;BMP180;65856;52.178;21.176;2023-06-22T13:16:10;100754.20;;;30.00
76898;BMP180;65856;52.178;21.176;2023-06-22T13:18:35;100756.40;;;30.00
76898;BMP180;65856;52.178;21.176;2023-06-22T13:21:03;100748.20;;;30.00
76898;BMP180;65856;52.178;21.176;2023-06-22T13:23:28;100748.80;;;29.98
76898;BMP180;65856;52.178;21.176;2023-06-22T13:25:54;100747.20;;;29.90
76898;BMP180;65856;52.178;21.176;2023-06-22T13:28:20;100747.60;;;29.92
76898;BMP180;65856;52.178;21.176;2023-06-22T13:30:46;100746.60;;;29.90
76898;BMP180;65856;52.178;21.176;2023-06-22T13:33:13;100749.80;;;29.80
76898;BMP180;65856;52.178;21.176;2023-06-22T13:35:39;100747.80;;;29.80
76898;BMP180;65856;52.178;21.176;2023-06-22T13:38:08;100746.40;;;29.80
76898;BMP180;65856;52.178;21.176;2023-06-22T13:40:34;100755.40;;;29.70
76898;BMP180;65856;52.178;21.176;2023-06-22T13:43:00;100757.40;;;29.70
76898;BMP180;65856;52.178;21.176;2023-06-22T13:45:26;100752.80;;;29.70
76898;BMP180;65856;52.178;21.176;2023-06-22T13:47:52;100753.40;;;29.68
76898;BMP180;65856;52.178;21.176;2023-06-22T13:50:17;100761.20;;;29.70